首页
METAR-TAF:

METAR-TAF

机场 :

圣艾蒂安, 法国

纬度: 45-32N, 经度: 004-18E, 海拔: 404米

当前天气观测

该预报发布于32分钟前的02:00 UTC
风速3节,风向
温度 1°C
湿度 93%
气压 1007 hPa
能见度10公里或以上
少量云层高于4200英尺
散云层高于4900英尺
阴天层高于7800英尺

METAR: LFMH 170200Z AUTO 18003KT 9999 FEW042 SCT049 OVC078 01/M00 Q1007

时间: 03:32 (02:32 UTC)

预报

该预报发布于12小时和32分钟前的14:00 UTC
预报有效从16日的 15点(UTC)到 17日的 15点(UTC)
风速10节,风向
能见度10公里或以上
1500米以下无云,无积雨云
短暂存在
从 17日的 00点(UTC)到 17日的 15点(UTC)
风速3节,风向多变
多云层高于1800英尺
小雨
几率 30% :
短暂存在
从 17日的 02点(UTC)到 17日的 08点(UTC)
能見度: 4000
多云层高于500英尺
小雨, 雪

TAF: LFMH 161400Z 1615/1715 18010KT CAVOK TEMPO 1700/1715 VRB03KT -RA BKN018 PROB30 TEMPO 1702/1708 4000 -RASN BKN005

超过4000个机场的气象观测和天气预报(METAR&TAF报告)。

可查询的气象台以黄色和红色小点在地图上表示。

将鼠标移到小点上方,可查看气象台名称。

然后点击查看天气观测和预报。

如需切换地图:点击带黑十字的绿色按钮放大地图;点击带横线的绿色按钮缩小地图;或者点击绿色箭头查看邻近地区的地图。


METAR-TAF: